CheckWX is a tool to help pilots better visualize weather data.  It is not intended as a substitute for an official pre-flight weather briefing.

13:00:29 UTC

KARR METAR
Aurora Municipal Airport
Chicago/Aurora, Illinois, USA
Current

1 hour ago

KARR 181152Z AUTO 34006KT 10SM OVC110 M07/M09 A3013 RMK AO2 SLP212 60000 T10671089 11056 21067 53031 TSNO
Observed
Feb-18 @ 11:52 UTC
Wind
  • 340° at 6 KTS
Visibility
10 SM
Flight Rules
VFR
Cloud Levels
  • Overcast at 11,000' AGL
Temperature
-7°C / 19°F
Dewpoint
-9°C / 16°F
Humidity
86%
Altimeter
30.13" Hg
Pressure
1021.2 hPa
Previous

2 hours ago

KARR 181052Z AUTO 34008KT 10SM OVC110 M07/M09 A3009 RMK AO2 SLP199 T10671089 TSNO
Observed
Feb-18 @ 10:52 UTC
Wind
  • 340° at 8 KTS
Visibility
10 SM
Flight Rules
VFR
Cloud Levels
  • Overcast at 11,000' AGL
Temperature
-7°C / 19°F
Dewpoint
-9°C / 16°F
Humidity
86%
Altimeter
30.09" Hg
Pressure
1019.9 hPa
Previous

3 hours ago

KARR 180952Z AUTO 34010KT 5SM BR BKN044 OVC100 M07/M08 A3006 RMK AO2 SNE45 SLP188 P0000 T10671083 TSNO
Observed
Feb-18 @ 09:52 UTC
Wind
  • 340° at 10 KTS
Visibility
5 SM
Flight Rules
MVFR
Conditions
Mist
Cloud Levels
  • Broken at 4,400' AGL
  • Overcast at 10,000' AGL
Temperature
-7°C / 19°F
Dewpoint
-8°C / 18°F
Humidity
93%
Altimeter
30.06" Hg
Pressure
1018.8 hPa
Current Rain
0.01"